Latest Weather Observations for Glen Innes Airport

IDN60801

Issued at 1:02 am EDT Friday 9 December 2016 (issued every 30 minutes, with the page automatically refreshed every 10 minutes)

About weather observations | Map of weather stations | Latest weather observations for NSW | Other Formats
Station Details ID: 056243 Name: GLEN INNES AIRPORT AWS Lat: -29.68 Lon: 151.69 Height: 1044.3 m
Data from the previous 72 hours. | See also: Recent months at Glen Innes Airport
Date/Time
EDT
Temp
°C
App
Temp
°C
Dew
Point
°C
Rel
Hum
%
Delta-T
°C
Wind Press
QNH
hPa
Press
MSL
hPa
Rain since
9am
mm
Dir  Spd
km/h
Gust
km/h
Spd
kts
Gust
kts
09/01:00am 16.3 11.8 15.0 92 0.8 W 32 30 17 16 1012.4 1007.3 -
09/12:46am 17.6 12.7 16.3 92 0.8 WNW 37 50 20 27 1012.2 1007.1 22.6
09/12:30am 17.8 12.4 16.0 89 1.1 NW 39 48 21 26 1011.5 1006.4 22.4
09/12:05am 18.6 12.6 16.4 87 1.4 NW 43 54 23 29 1011.6 1006.5 22.2
09/12:00am 18.7 12.7 16.5 87 1.4 NW 43 56 23 30 1011.6 1006.5 22.2
 
Date/Time
EDT
Temp
°C
App
Temp
°C
Dew
Point
°C
Rel
Hum
%
Delta-T
°C
Wind Press
QNH
hPa
Press
MSL
hPa
Rain since
9am
mm
Dir  Spd
km/h
Gust
km/h
Spd
kts
Gust
kts
08/11:30pm 18.9 15.1 16.7 87 1.4 NW 32 46 17 25 1011.7 1006.6 22.2
08/11:00pm 18.9 16.2 16.7 87 1.4 NNW 26 35 14 19 1012.1 1007.0 22.2
08/10:30pm 18.5 17.0 16.7 89 1.1 NNW 20 28 11 15 1012.0 1006.8 22.2
08/10:00pm 18.1 16.8 16.8 92 0.8 NNW 19 24 10 13 1012.2 1007.1 22.2
08/09:30pm 17.8 16.8 16.7 93 0.7 NNW 17 22 9 12 1012.2 1007.1 22.2
08/09:00pm 17.6 16.1 16.3 92 0.8 NNW 19 26 10 14 1012.1 1007.0 22.2
08/08:30pm 17.5 14.3 16.2 92 0.8 NW 28 39 15 21 1012.2 1007.1 22.2
08/08:29pm 17.5 14.6 16.2 92 0.8 NW 26 39 14 21 1012.1 1007.0 22.2
08/08:00pm 17.6 14.5 16.6 94 0.6 NNW 28 39 15 21 1012.2 1007.1 21.6
08/07:45pm 17.0 16.0 15.7 92 0.8 NNW 15 22 8 12 1012.1 1007.0 20.6
08/07:30pm 16.9 16.2 15.4 91 0.9 N 13 20 7 11 1011.4 1006.3 20.4
08/07:00pm 17.7 16.7 15.5 87 1.4 N 15 19 8 10 1011.7 1006.6 20.2
08/06:30pm 17.9 16.4 16.2 90 1.1 NNW 19 24 10 13 1011.9 1006.7 20.2
08/06:00pm 18.3 12.6 16.3 88 1.3 NW 41 59 22 32 1011.1 1005.9 19.8
08/05:46pm 20.2 17.4 17.4 84 1.8 NW 28 50 15 27 1011.1 1005.9 18.8
08/05:30pm 21.1 18.1 16.9 77 2.7 NW 28 39 15 21 1010.4 1005.3 18.6
08/05:00pm 21.9 20.6 17.3 75 3.0 NNW 20 30 11 16 1009.9 1004.7 18.4
08/04:35pm 21.3 21.1 17.5 79 2.4 NW 15 22 8 12 1010.1 1004.9 18.4
08/04:30pm 20.9 19.7 18.3 85 1.7 NW 22 35 12 19 1010.2 1005.0 18.4
08/04:17pm 19.6 15.1 15.3 76 2.7 NW 33 56 18 30 1010.3 1005.2 17.8
08/04:14pm 21.2 18.3 17.0 77 2.7 NW 28 46 15 25 1010.8 1005.6 16.6
08/04:00pm 23.5 19.5 16.3 64 4.6 NW 32 41 17 22 1010.3 1005.2 16.2
08/03:30pm 24.5 24.4 19.6 74 3.3 NNW 19 30 10 16 1011.0 1005.8 16.2
08/03:00pm 21.1 22.9 18.7 86 1.6 NNW 7 13 4 7 1011.7 1006.6 16.2
08/02:52pm 20.2 21.7 18.1 88 1.4 NW 7 13 4 7 1012.1 1007.0 16.2
08/02:33pm 17.5 14.3 16.2 92 0.8 SW 28 48 15 26 1012.7 1007.6 15.6
08/02:30pm 16.6 12.2 15.6 94 0.6 SW 33 48 18 26 1012.9 1007.7 14.6
08/02:22pm 15.8 10.8 13.3 85 1.5 SW 32 46 17 25 1013.2 1008.1 8.2
08/02:08pm 19.7 17.9 16.0 79 2.3 WSW 20 43 11 23 1013.6 1008.5 5.0
08/02:00pm 19.6 18.6 16.6 83 1.9 WSW 17 24 9 13 1013.1 1008.0 5.0
08/01:30pm 21.9 19.5 18.3 80 2.3 NW 28 39 15 21 1013.0 1007.9 5.0
08/01:12pm 21.2 21.0 19.8 92 0.9 NW 20 28 11 15 1013.2 1008.1 5.0
08/01:00pm 19.9 17.5 18.2 90 1.1 NW 28 41 15 22 1013.6 1008.5 5.0
08/12:54pm 19.0 15.0 16.8 87 1.4 NW 33 57 18 31 1013.7 1008.7 5.0
08/12:49pm 19.4 16.2 16.2 82 2.0 NW 28 57 15 31 1013.7 1008.7 3.2
08/12:47pm 20.0 17.4 16.0 78 2.5 NW 24 57 13 31 1013.6 1008.5 3.2
08/12:30pm 19.8 17.0 17.4 86 1.5 NW 28 37 15 20 1013.9 1008.8 3.0
08/12:24pm 20.6 17.8 17.4 82 2.1 NW 28 41 15 22 1014.2 1009.1 1.2
08/12:00pm 25.0 20.8 16.2 58 5.6 WNW 33 43 18 23 1014.3 1009.2 0.0
08/11:30am 25.0 22.7 15.6 56 5.9 NW 22 32 12 17 1014.5 1009.4 0.0
08/11:00am 23.8 22.7 17.8 69 3.9 NW 20 28 11 15 1014.6 1009.6 0.0
08/10:46am 23.6 23.3 18.3 72 3.5 NW 17 30 9 16 1014.8 1009.8 0.0
08/10:30am 23.1 22.3 18.0 73 3.3 NNW 19 26 10 14 1015.0 1009.9 0.0
08/10:00am 22.1 21.9 18.5 80 2.4 NNW 17 22 9 12 1015.4 1010.3 0.0
08/09:30am 19.7 19.4 17.3 86 1.5 N 15 24 8 13 1015.6 1010.6 0.0
08/09:00am 18.7 18.6 16.9 89 1.1 N 13 19 7 10 1016.2 1011.1 0.6
08/08:30am 18.0 19.7 16.3 90 1.1 NE 2 7 1 4 1016.4 1011.4 0.6
08/08:00am 17.4 18.1 16.1 92 0.8 ENE 7 9 4 5 1016.6 1011.6 0.6
08/07:30am 16.9 17.7 15.8 93 0.7 SE 6 9 3 5 1016.8 1011.8 0.6
08/07:00am 16.3 16.7 15.2 93 0.7 SE 7 9 4 5 1016.6 1011.6 0.6
08/06:30am 16.0 16.3 15.0 94 0.6 SE 7 13 4 7 1016.3 1011.2 0.6
08/06:00am 15.8 15.6 14.7 93 0.7 SE 9 11 5 6 1016.2 1011.1 0.4
08/05:30am 15.8 16.0 14.7 93 0.7 ESE 7 11 4 6 1016.1 1011.0 0.0
08/05:00am 15.8 15.5 14.5 92 0.8 SE 9 13 5 7 1016.3 1011.2 0.0
08/04:30am 15.7 15.0 14.4 92 0.8 ESE 11 15 6 8 1016.1 1011.0 0.0
08/04:00am 15.6 15.3 14.3 92 0.8 SE 9 13 5 7 1016.2 1011.1 0.0
08/03:34am 15.5 14.4 14.2 92 0.8 ESE 13 17 7 9 1016.1 1011.0 0.0
08/03:30am 15.5 14.0 14.2 92 0.8 ESE 15 19 8 10 1016.1 1011.0 0.0
08/03:15am 15.7 14.6 14.2 91 0.9 ESE 13 15 7 8 1016.3 1011.2 0.0
08/03:00am 15.6 14.1 14.1 91 0.9 ESE 15 17 8 9 1016.4 1011.4 0.0
08/02:30am 15.9 15.2 14.4 91 0.9 E 11 15 6 8 1017.0 1011.9 0.0
08/02:00am 15.8 15.5 14.3 91 0.9 ESE 9 13 5 7 1017.4 1012.4 0.0
08/01:30am 15.8 14.3 14.3 91 0.9 ESE 15 20 8 11 1017.7 1012.7 0.0
08/01:00am 15.8 13.9 14.3 91 0.9 E 17 24 9 13 1018.2 1013.2 0.0
08/12:30am 15.8 13.4 14.3 91 0.9 E 20 28 11 15 1018.4 1013.4 0.0
08/12:00am 16.0 13.8 14.5 91 0.9 E 19 24 10 13 1018.6 1013.6 0.0
 
Date/Time
EDT
Temp
°C
App
Temp
°C
Dew
Point
°C
Rel
Hum
%
Delta-T
°C
Wind Press
QNH
hPa
Press
MSL
hPa
Rain since
9am
mm
Dir  Spd
km/h
Gust
km/h
Spd
kts
Gust
kts
07/11:30pm 16.3 15.0 14.7 90 1.0 ESE 15 20 8 11 1018.7 1013.7 0.0
07/11:00pm 16.6 15.8 15.1 91 0.9 E 13 19 7 10 1019.2 1014.2 0.0
07/10:30pm 16.8 16.1 15.3 91 0.9 ESE 13 17 7 9 1019.2 1014.2 0.0
07/10:00pm 17.2 16.7 15.9 92 0.8 ESE 13 17 7 9 1018.9 1014.0 0.0
07/09:30pm 18.3 17.3 16.6 90 1.1 E 17 20 9 11 1018.7 1013.7 0.0
07/09:00pm 19.1 20.4 17.1 88 1.3 NE 6 7 3 4 1018.3 1013.3 0.0
07/08:30pm 19.0 20.9 16.8 87 1.4 NE 2 7 1 4 1018.4 1013.4 0.0
07/08:00pm 20.2 22.6 17.0 82 2.0 CALM 0 0 0 0 1018.3 1013.3 0.0
07/07:30pm 20.6 22.4 16.4 77 2.7 W 2 6 1 3 1017.9 1012.9 0.0
07/07:00pm 21.4 21.9 16.6 74 3.0 W 9 11 5 6 1017.5 1012.5 0.0
07/06:30pm 21.9 21.5 16.2 70 3.6 WSW 13 17 7 9 1017.3 1012.3 0.0
07/06:00pm 22.1 21.6 15.9 68 3.9 WSW 13 19 7 10 1017.1 1012.0 0.0
07/05:30pm 22.6 21.0 15.9 66 4.2 WSW 19 24 10 13 1017.0 1011.9 0.0
07/05:00pm 23.0 21.2 16.1 65 4.4 WSW 20 28 11 15 1016.8 1011.8 0.0
07/04:30pm 23.8 21.5 16.6 64 4.6 W 24 32 13 17 1017.0 1011.9 0.0
07/04:00pm 23.8 21.7 16.3 63 4.8 W 22 28 12 15 1016.7 1011.7 0.0
07/03:30pm 24.0 21.2 16.3 62 4.9 W 26 32 14 17 1017.1 1012.0 0.0
07/03:00pm 24.6 22.3 16.6 61 5.1 W 24 32 13 17 1017.2 1012.1 0.0
07/02:30pm 25.1 23.2 17.6 63 4.9 WNW 24 35 13 19 1017.2 1012.1 0.0
07/02:00pm 24.1 21.4 16.6 63 4.8 WNW 26 35 14 19 1017.5 1012.5 0.0
07/01:30pm 24.1 22.0 16.1 61 5.1 W 22 28 12 15 1017.6 1012.6 0.0
07/01:00pm 25.1 22.7 15.4 55 6.1 WNW 22 35 12 19 1017.6 1012.6 0.0
07/12:30pm 25.8 24.1 17.2 59 5.6 WNW 22 30 12 16 1017.7 1012.7 0.0
07/12:00pm 24.8 23.9 16.8 61 5.1 WNW 17 22 9 12 1017.8 1012.8 0.0
07/11:30am 24.3 23.7 17.5 66 4.4 NW 17 24 9 13 1017.8 1012.8 0.0
07/11:00am 23.3 21.8 16.8 67 4.2 NW 20 26 11 14 1017.7 1012.7 0.0
07/10:30am 23.5 21.8 16.3 64 4.6 NW 20 26 11 14 1017.7 1012.7 0.0
07/10:00am 22.4 22.5 17.5 74 3.2 N 13 20 7 11 1017.5 1012.5 0.0
07/09:30am 21.7 23.4 18.5 82 2.1 NNE 7 11 4 6 1017.5 1012.5 0.0
07/09:00am 21.0 22.2 18.2 84 1.8 N 9 15 5 8 1017.5 1012.5 3.2
07/08:30am 19.3 20.1 17.3 88 1.3 NNE 9 15 5 8 1017.3 1012.3 3.2
07/08:00am 18.4 19.2 17.2 93 0.8 NNE 9 11 5 6 1017.5 1012.5 3.2
07/07:30am 18.1 19.2 17.0 93 0.7 NE 7 13 4 7 1017.7 1012.7 3.2
07/07:00am 17.8 19.0 16.8 94 0.6 SE 6 9 3 5 1018.1 1013.0 3.0
07/06:30am 17.6 18.1 16.6 94 0.6 SSE 9 11 5 6 1017.8 1012.8 2.8
07/06:00am 17.5 18.5 16.4 93 0.7 ESE 6 7 3 4 1017.2 1012.1 2.8
07/05:30am 17.8 19.2 16.5 92 0.8 W 4 7 2 4 1017.6 1012.6 2.8
07/05:00am 17.9 18.5 16.8 93 0.7 NNW 9 15 5 8 1017.7 1012.7 2.8
07/04:30am 17.9 18.1 16.8 93 0.7 N 11 15 6 8 1017.4 1012.4 2.6
07/04:00am 17.6 19.7 16.3 92 0.8 CALM 0 7 0 4 1017.0 1011.9 2.6
07/03:30am 17.9 18.9 16.4 91 0.9 NNW 6 9 3 5 1017.1 1012.0 2.6
07/03:00am 18.0 18.1 16.5 91 0.9 SE 11 13 6 7 1016.3 1011.2 2.4
07/02:30am 18.2 20.4 16.5 90 1.1 CALM 0 2 0 1 1017.6 1012.6 2.2
07/02:00am 18.2 19.3 16.7 91 0.9 W 6 9 3 5 1018.1 1013.0 2.2
07/01:30am 17.8 18.7 16.1 90 1.1 W 6 9 3 5 1018.1 1013.0 2.2
07/01:00am 17.6 17.4 16.6 94 0.6 NW 13 17 7 9 1017.7 1012.7 2.2
07/12:30am 17.8 18.9 16.7 93 0.7 ESE 6 7 3 4 1017.2 1012.1 2.2
07/12:00am 17.6 18.4 16.3 92 0.8 S 7 9 4 5 1017.1 1012.0 2.2
 
Date/Time
EDT
Temp
°C
App
Temp
°C
Dew
Point
°C
Rel
Hum
%
Delta-T
°C
Wind Press
QNH
hPa
Press
MSL
hPa
Rain since
9am
mm
Dir  Spd
km/h
Gust
km/h
Spd
kts
Gust
kts
06/11:30pm 17.6 17.7 16.5 93 0.7 E 11 13 6 7 1017.4 1012.4 2.0
06/11:00pm 17.4 19.4 15.9 91 0.9 CALM 0 2 0 1 1017.7 1012.7 2.0
06/10:30pm 17.4 17.0 16.3 93 0.7 SSE 13 15 7 8 1016.8 1011.8 2.0
06/10:00pm 16.9 17.3 15.4 91 0.9 E 7 9 4 5 1017.3 1012.3 2.0
06/09:30pm 17.2 19.2 15.9 92 0.8 CALM 0 0 0 0 1017.6 1012.6 2.0
06/09:00pm 17.6 19.3 16.1 91 0.9 NNE 2 6 1 3 1017.5 1012.5 2.0
06/08:30pm 17.7 18.0 16.0 90 1.1 SSE 9 11 5 6 1017.0 1011.9 2.0
06/08:00pm 18.7 19.0 16.9 89 1.1 NE 11 13 6 7 1016.8 1011.8 2.0
06/07:30pm 19.2 19.4 16.8 86 1.5 SE 11 13 6 7 1016.7 1011.7 2.0
06/07:00pm 19.6 20.1 17.4 87 1.4 SE 11 15 6 8 1016.4 1011.4 2.0
06/06:30pm 18.4 19.3 16.6 89 1.1 SSE 7 20 4 11 1017.2 1012.1 1.8
06/06:00pm 18.5 17.5 16.7 89 1.1 WNW 17 28 9 15 1017.9 1012.9 1.0
06/05:30pm 18.8 16.5 16.6 87 1.4 WSW 24 41 13 22 1017.8 1012.8 0.4
06/05:05pm 22.4 20.9 16.2 68 3.9 SW 19 57 10 31 1017.2 1012.1 0.0
06/05:00pm 23.4 23.9 18.3 73 3.3 SW 13 17 7 9 1016.5 1011.5 0.0
06/04:30pm 23.9 26.3 17.9 69 3.9 WSW 2 9 1 5 1016.3 1011.2 0.0
06/04:00pm 24.7 25.0 17.9 66 4.4 WNW 13 15 7 8 1016.4 1011.4 0.0
06/03:30pm 25.7 25.2 17.9 62 5.1 WNW 17 22 9 12 1017.0 1011.9 0.0
06/03:00pm 26.4 25.8 18.8 63 5.1 NW 20 26 11 14 1017.1 1012.0 0.0
06/02:30pm 26.8 25.1 18.1 59 5.7 NW 24 32 13 17 1017.1 1012.0 0.0
06/02:00pm 28.4 28.0 19.3 57 6.1 NW 20 30 11 16 1017.4 1012.4 0.0
06/01:30pm 27.1 26.3 18.4 59 5.8 NW 20 26 11 14 1017.9 1012.9 0.0
06/01:00pm 26.8 26.2 19.7 65 4.8 NW 22 33 12 18 1018.2 1013.2 0.0
06/12:30pm 26.8 25.7 19.4 64 5.0 NNW 24 35 13 19 1018.7 1013.7 0.0
06/12:00pm 25.9 23.9 18.3 63 5.0 NW 26 33 14 18 1019.4 1014.4 0.0
06/11:30am 25.8 23.6 18.7 65 4.7 WNW 28 37 15 20 1019.3 1014.3 0.0
06/11:00am 26.3 24.4 17.6 58 5.7 NW 24 37 13 20 1019.4 1014.4 0.0
06/10:30am 25.9 24.3 18.3 63 5.0 NW 24 30 13 16 1019.6 1014.6 0.0
06/10:00am 24.7 23.5 18.4 68 4.1 NNW 22 32 12 17 1019.7 1014.7 0.0
06/09:30am 23.5 23.5 17.3 68 4.0 NNW 13 17 7 9 1019.6 1014.6 0.0
06/09:00am 22.6 22.8 17.7 74 3.2 N 13 17 7 9 1019.6 1014.6 10.0
06/08:30am 21.9 22.2 17.1 74 3.1 N 11 17 6 9 1019.4 1014.4 10.0
06/08:00am 21.0 21.8 17.4 80 2.3 NE 9 13 5 7 1019.2 1014.2 10.0
06/07:30am 19.4 19.5 17.5 89 1.2 ESE 13 15 7 8 1018.8 1013.8 10.0
06/07:00am 18.4 19.0 16.7 90 1.1 SE 9 11 5 6 1018.4 1013.4 10.0
06/06:30am 17.3 16.9 16.2 93 0.7 SSE 13 15 7 8 1017.9 1012.9 10.0
06/06:00am 17.3 17.6 16.0 92 0.8 SE 9 11 5 6 1017.6 1012.6 10.0
06/05:30am 17.1 16.4 15.4 90 1.0 SE 13 15 7 8 1017.2 1012.1 10.0
06/05:00am 17.6 17.6 16.3 92 0.8 ENE 11 15 6 8 1017.4 1012.4 10.0
06/04:30am 17.5 17.5 16.2 92 0.8 ESE 11 15 6 8 1017.7 1012.7 10.0
06/04:00am 17.8 18.3 16.5 92 0.8 ESE 9 13 5 7 1018.2 1013.2 10.0
06/03:30am 18.0 18.6 16.7 92 0.8 E 9 11 5 6 1017.8 1012.8 10.0
06/03:00am 18.3 19.5 16.8 91 0.9 N 6 7 3 4 1018.3 1013.3 10.0
06/02:30am 17.6 17.2 16.1 91 0.9 SSE 13 15 7 8 1017.6 1012.6 10.0
06/02:00am 18.5 20.7 16.5 88 1.3 CALM 0 0 0 0 1017.8 1012.8 10.0
06/01:30am 18.4 18.1 16.4 88 1.3 SE 13 20 7 11 1017.7 1012.7 10.0
06/01:09am 18.6 16.8 16.9 90 1.1 NNE 22 30 12 16 1017.8 1012.8 10.0

Other Formats:

Comma delimited format used in spreadsheet applications
http://www.bom.gov.au/fwo/IDN60801/IDN60801.94588.axf

JavaScript Object Notation format (JSON) in row-major order
http://www.bom.gov.au/fwo/IDN60801/IDN60801.94588.json